sensor_id;sensor_type;location;lat;lon;timestamp;P1;durP1;ratioP1;P2;durP2;ratioP2
16352;SDS011;8286;51.274;9.542;2023-12-20T00:00:46;5.47;;;4.43;;
16352;SDS011;8286;51.274;9.542;2023-12-20T00:03:13;8.30;;;5.00;;
16352;SDS011;8286;51.274;9.542;2023-12-20T00:05:39;8.00;;;5.17;;
16352;SDS011;8286;51.274;9.542;2023-12-20T00:08:06;8.50;;;4.97;;
16352;SDS011;8286;51.274;9.542;2023-12-20T00:10:32;6.83;;;4.90;;
16352;SDS011;8286;51.274;9.542;2023-12-20T00:12:59;9.73;;;5.37;;
16352;SDS011;8286;51.274;9.542;2023-12-20T00:15:27;9.40;;;5.43;;
16352;SDS011;8286;51.274;9.542;2023-12-20T00:17:53;7.60;;;5.20;;
16352;SDS011;8286;51.274;9.542;2023-12-20T00:20:19;8.00;;;4.93;;
16352;SDS011;8286;51.274;9.542;2023-12-20T00:22:45;8.50;;;5.47;;
16352;SDS011;8286;51.274;9.542;2023-12-20T00:25:11;8.73;;;5.80;;
16352;SDS011;8286;51.274;9.542;2023-12-20T00:27:38;9.87;;;6.00;;
16352;SDS011;8286;51.274;9.542;2023-12-20T00:30:05;10.90;;;5.83;;
16352;SDS011;8286;51.274;9.542;2023-12-20T00:32:34;9.10;;;5.97;;
16352;SDS011;8286;51.274;9.542;2023-12-20T00:35:01;8.67;;;5.30;;
16352;SDS011;8286;51.274;9.542;2023-12-20T00:37:27;6.90;;;5.03;;
16352;SDS011;8286;51.274;9.542;2023-12-20T00:39:54;8.50;;;5.63;;
16352;SDS011;8286;51.274;9.542;2023-12-20T00:42:20;9.10;;;6.07;;
16352;SDS011;8286;51.274;9.542;2023-12-20T00:44:47;9.80;;;5.00;;
16352;SDS011;8286;51.274;9.542;2023-12-20T00:47:13;8.50;;;5.67;;
16352;SDS011;8286;51.274;9.542;2023-12-20T00:49:41;9.07;;;6.17;;
16352;SDS011;8286;51.274;9.542;2023-12-20T00:52:07;8.10;;;5.47;;
16352;SDS011;8286;51.274;9.542;2023-12-20T00:54:34;8.93;;;5.73;;
16352;SDS011;8286;51.274;9.542;2023-12-20T00:57:00;9.80;;;5.80;;
16352;SDS011;8286;51.274;9.542;2023-12-20T00:59:27;10.13;;;5.80;;
16352;SDS011;8286;51.274;9.542;2023-12-20T01:01:53;8.27;;;5.43;;
16352;SDS011;8286;51.274;9.542;2023-12-20T01:04:20;6.93;;;4.90;;
16352;SDS011;8286;51.274;9.542;2023-12-20T01:06:47;8.63;;;5.67;;
16352;SDS011;8286;51.274;9.542;2023-12-20T01:09:14;8.57;;;5.30;;
16352;SDS011;8286;51.274;9.542;2023-12-20T01:11:40;9.20;;;5.10;;
16352;SDS011;8286;51.274;9.542;2023-12-20T01:14:07;7.37;;;5.23;;
16352;SDS011;8286;51.274;9.542;2023-12-20T01:16:33;7.33;;;5.50;;
16352;SDS011;8286;51.274;9.542;2023-12-20T01:19:00;7.53;;;5.20;;
16352;SDS011;8286;51.274;9.542;2023-12-20T01:21:26;8.57;;;5.47;;
16352;SDS011;8286;51.274;9.542;2023-12-20T01:23:54;8.23;;;5.63;;
16352;SDS011;8286;51.274;9.542;2023-12-20T01:26:20;6.87;;;5.43;;
16352;SDS011;8286;51.274;9.542;2023-12-20T01:28:47;8.90;;;5.13;;
16352;SDS011;8286;51.274;9.542;2023-12-20T01:31:13;7.43;;;5.13;;
16352;SDS011;8286;51.274;9.542;2023-12-20T01:33:40;6.73;;;4.53;;
16352;SDS011;8286;51.274;9.542;2023-12-20T01:36:06;6.30;;;4.53;;
16352;SDS011;8286;51.274;9.542;2023-12-20T01:38:33;5.60;;;4.67;;
16352;SDS011;8286;51.274;9.542;2023-12-20T01:41:01;7.50;;;5.00;;
16352;SDS011;8286;51.274;9.542;2023-12-20T01:43:27;8.70;;;5.37;;
16352;SDS011;8286;51.274;9.542;2023-12-20T01:45:54;7.30;;;4.73;;
16352;SDS011;8286;51.274;9.542;2023-12-20T01:48:21;7.47;;;5.13;;
16352;SDS011;8286;51.274;9.542;2023-12-20T01:50:48;6.57;;;4.57;;
16352;SDS011;8286;51.274;9.542;2023-12-20T01:53:15;9.97;;;5.00;;
16352;SDS011;8286;51.274;9.542;2023-12-20T01:55:42;9.20;;;5.37;;
16352;SDS011;8286;51.274;9.542;2023-12-20T01:58:10;7.57;;;4.70;;
16352;SDS011;8286;51.274;9.542;2023-12-20T02:00:37;8.80;;;5.77;;
16352;SDS011;8286;51.274;9.542;2023-12-20T02:03:04;7.10;;;4.77;;
16352;SDS011;8286;51.274;9.542;2023-12-20T02:05:31;8.37;;;4.40;;
16352;SDS011;8286;51.274;9.542;2023-12-20T02:07:58;6.30;;;4.03;;
16352;SDS011;8286;51.274;9.542;2023-12-20T02:10:24;7.33;;;4.13;;
16352;SDS011;8286;51.274;9.542;2023-12-20T02:12:51;5.50;;;4.27;;
16352;SDS011;8286;51.274;9.542;2023-12-20T02:15:19;7.43;;;4.23;;
16352;SDS011;8286;51.274;9.542;2023-12-20T02:17:46;8.33;;;4.93;;
16352;SDS011;8286;51.274;9.542;2023-12-20T02:20:13;6.70;;;4.43;;
16352;SDS011;8286;51.274;9.542;2023-12-20T02:22:41;9.03;;;5.63;;
16352;SDS011;8286;51.274;9.542;2023-12-20T02:25:07;6.60;;;4.83;;
16352;SDS011;8286;51.274;9.542;2023-12-20T02:27:34;7.23;;;5.17;;
16352;SDS011;8286;51.274;9.542;2023-12-20T02:30:00;9.27;;;5.47;;
16352;SDS011;8286;51.274;9.542;2023-12-20T02:32:28;8.27;;;5.73;;
16352;SDS011;8286;51.274;9.542;2023-12-20T02:34:55;11.20;;;5.43;;
16352;SDS011;8286;51.274;9.542;2023-12-20T02:37:21;10.07;;;6.60;;
16352;SDS011;8286;51.274;9.542;2023-12-20T02:39:49;12.30;;;5.87;;
16352;SDS011;8286;51.274;9.542;2023-12-20T02:42:16;13.40;;;6.77;;
16352;SDS011;8286;51.274;9.542;2023-12-20T02:44:42;9.03;;;6.00;;
16352;SDS011;8286;51.274;9.542;2023-12-20T02:47:08;9.87;;;6.33;;
16352;SDS011;8286;51.274;9.542;2023-12-20T02:49:35;7.33;;;5.73;;
16352;SDS011;8286;51.274;9.542;2023-12-20T02:52:01;9.27;;;5.77;;
16352;SDS011;8286;51.274;9.542;2023-12-20T02:54:28;12.57;;;5.37;;
16352;SDS011;8286;51.274;9.542;2023-12-20T02:56:56;9.30;;;5.20;;
16352;SDS011;8286;51.274;9.542;2023-12-20T02:59:22;8.67;;;3.97;;
16352;SDS011;8286;51.274;9.542;2023-12-20T03:01:49;9.67;;;4.83;;
16352;SDS011;8286;51.274;9.542;2023-12-20T03:04:15;8.37;;;5.17;;
16352;SDS011;8286;51.274;9.542;2023-12-20T03:06:42;8.40;;;4.23;;
16352;SDS011;8286;51.274;9.542;2023-12-20T03:09:08;6.90;;;4.20;;
16352;SDS011;8286;51.274;9.542;2023-12-20T03:11:34;7.37;;;4.60;;
16352;SDS011;8286;51.274;9.542;2023-12-20T03:14:02;8.80;;;4.20;;
16352;SDS011;8286;51.274;9.542;2023-12-20T03:16:29;6.57;;;4.33;;
16352;SDS011;8286;51.274;9.542;2023-12-20T03:18:56;7.20;;;4.00;;
16352;SDS011;8286;51.274;9.542;2023-12-20T03:21:22;4.57;;;3.50;;
16352;SDS011;8286;51.274;9.542;2023-12-20T03:23:49;4.77;;;3.37;;
16352;SDS011;8286;51.274;9.542;2023-12-20T03:26:15;4.83;;;3.07;;
16352;SDS011;8286;51.274;9.542;2023-12-20T03:28:42;4.47;;;3.77;;
16352;SDS011;8286;51.274;9.542;2023-12-20T03:31:10;5.47;;;3.57;;
16352;SDS011;8286;51.274;9.542;2023-12-20T03:33:37;4.57;;;3.30;;
16352;SDS011;8286;51.274;9.542;2023-12-20T03:36:03;6.00;;;3.50;;
16352;SDS011;8286;51.274;9.542;2023-12-20T03:38:30;8.73;;;3.30;;
16352;SDS011;8286;51.274;9.542;2023-12-20T03:40:56;7.40;;;3.47;;
16352;SDS011;8286;51.274;9.542;2023-12-20T03:43:23;5.97;;;4.20;;
16352;SDS011;8286;51.274;9.542;2023-12-20T03:45:49;6.23;;;3.73;;
16352;SDS011;8286;51.274;9.542;2023-12-20T03:48:17;8.30;;;4.00;;
16352;SDS011;8286;51.274;9.542;2023-12-20T03:50:43;6.23;;;4.17;;
16352;SDS011;8286;51.274;9.542;2023-12-20T03:53:10;7.37;;;3.80;;
16352;SDS011;8286;51.274;9.542;2023-12-20T03:55:36;5.70;;;3.93;;
16352;SDS011;8286;51.274;9.542;2023-12-20T03:58:03;7.37;;;4.10;;
16352;SDS011;8286;51.274;9.542;2023-12-20T04:00:29;9.07;;;4.57;;
16352;SDS011;8286;51.274;9.542;2023-12-20T04:02:56;7.30;;;4.60;;
16352;SDS011;8286;51.274;9.542;2023-12-20T04:05:23;6.60;;;4.57;;
16352;SDS011;8286;51.274;9.542;2023-12-20T04:07:50;8.13;;;4.47;;
16352;SDS011;8286;51.274;9.542;2023-12-20T04:10:16;5.80;;;4.43;;
16352;SDS011;8286;51.274;9.542;2023-12-20T04:12:43;8.77;;;4.87;;
16352;SDS011;8286;51.274;9.542;2023-12-20T04:15:09;10.20;;;4.83;;
16352;SDS011;8286;51.274;9.542;2023-12-20T04:17:37;6.47;;;4.50;;
16352;SDS011;8286;51.274;9.542;2023-12-20T04:20:03;9.00;;;4.83;;
16352;SDS011;8286;51.274;9.542;2023-12-20T04:22:32;8.43;;;5.07;;
16352;SDS011;8286;51.274;9.542;2023-12-20T04:24:58;7.37;;;4.80;;
16352;SDS011;8286;51.274;9.542;2023-12-20T04:27:25;7.63;;;4.30;;
16352;SDS011;8286;51.274;9.542;2023-12-20T04:29:51;6.87;;;4.27;;
16352;SDS011;8286;51.274;9.542;2023-12-20T04:32:18;6.40;;;3.97;;
16352;SDS011;8286;51.274;9.542;2023-12-20T04:34:44;8.20;;;3.87;;
16352;SDS011;8286;51.274;9.542;2023-12-20T04:37:11;5.30;;;3.60;;
16352;SDS011;8286;51.274;9.542;2023-12-20T04:39:38;3.93;;;2.80;;
16352;SDS011;8286;51.274;9.542;2023-12-20T04:42:06;6.03;;;3.13;;
16352;SDS011;8286;51.274;9.542;2023-12-20T04:44:32;4.10;;;2.40;;
16352;SDS011;8286;51.274;9.542;2023-12-20T04:46:59;7.40;;;2.77;;
16352;SDS011;8286;51.274;9.542;2023-12-20T04:49:26;5.30;;;2.97;;
16352;SDS011;8286;51.274;9.542;2023-12-20T04:51:52;7.60;;;3.00;;
16352;SDS011;8286;51.274;9.542;2023-12-20T04:54:19;4.80;;;2.50;;
16352;SDS011;8286;51.274;9.542;2023-12-20T04:56:47;3.10;;;2.13;;
16352;SDS011;8286;51.274;9.542;2023-12-20T04:59:13;4.30;;;2.50;;
16352;SDS011;8286;51.274;9.542;2023-12-20T05:01:40;6.00;;;2.50;;
16352;SDS011;8286;51.274;9.542;2023-12-20T05:04:06;4.33;;;2.10;;
16352;SDS011;8286;51.274;9.542;2023-12-20T05:06:33;6.33;;;2.97;;
16352;SDS011;8286;51.274;9.542;2023-12-20T05:08:59;9.53;;;2.93;;
16352;SDS011;8286;51.274;9.542;2023-12-20T05:11:25;7.37;;;2.50;;
16352;SDS011;8286;51.274;9.542;2023-12-20T05:13:53;7.37;;;3.00;;
16352;SDS011;8286;51.274;9.542;2023-12-20T05:16:20;4.33;;;2.43;;
16352;SDS011;8286;51.274;9.542;2023-12-20T05:18:47;4.47;;;2.10;;
16352;SDS011;8286;51.274;9.542;2023-12-20T05:21:14;5.23;;;2.23;;
16352;SDS011;8286;51.274;9.542;2023-12-20T05:23:40;4.30;;;1.97;;
16352;SDS011;8286;51.274;9.542;2023-12-20T05:26:06;3.47;;;2.00;;
16352;SDS011;8286;51.274;9.542;2023-12-20T05:28:33;5.63;;;2.00;;
16352;SDS011;8286;51.274;9.542;2023-12-20T05:31:01;4.80;;;1.73;;
16352;SDS011;8286;51.274;9.542;2023-12-20T05:33:28;5.23;;;2.03;;
16352;SDS011;8286;51.274;9.542;2023-12-20T05:35:54;5.23;;;1.80;;
16352;SDS011;8286;51.274;9.542;2023-12-20T05:38:21;3.03;;;1.90;;
16352;SDS011;8286;51.274;9.542;2023-12-20T05:40:47;5.93;;;1.77;;
16352;SDS011;8286;51.274;9.542;2023-12-20T05:43:13;4.97;;;1.90;;
16352;SDS011;8286;51.274;9.542;2023-12-20T05:45:40;7.70;;;2.17;;
16352;SDS011;8286;51.274;9.542;2023-12-20T05:48:08;4.10;;;2.60;;
16352;SDS011;8286;51.274;9.542;2023-12-20T05:50:35;4.07;;;1.93;;
16352;SDS011;8286;51.274;9.542;2023-12-20T05:53:01;7.20;;;2.30;;
16352;SDS011;8286;51.274;9.542;2023-12-20T05:55:28;7.53;;;2.43;;
16352;SDS011;8286;51.274;9.542;2023-12-20T05:57:55;3.00;;;2.17;;
16352;SDS011;8286;51.274;9.542;2023-12-20T06:00:21;6.93;;;2.27;;
16352;SDS011;8286;51.274;9.542;2023-12-20T06:02:47;4.23;;;1.73;;
16352;SDS011;8286;51.274;9.542;2023-12-20T06:05:15;4.43;;;2.10;;
16352;SDS011;8286;51.274;9.542;2023-12-20T06:07:42;4.93;;;2.07;;
16352;SDS011;8286;51.274;9.542;2023-12-20T06:10:09;4.73;;;1.77;;
16352;SDS011;8286;51.274;9.542;2023-12-20T06:12:36;8.03;;;2.77;;
16352;SDS011;8286;51.274;9.542;2023-12-20T06:15:03;3.87;;;2.77;;
16352;SDS011;8286;51.274;9.542;2023-12-20T06:17:30;5.87;;;2.67;;
16352;SDS011;8286;51.274;9.542;2023-12-20T06:19:57;5.53;;;3.37;;
16352;SDS011;8286;51.274;9.542;2023-12-20T06:22:25;3.70;;;2.27;;
16352;SDS011;8286;51.274;9.542;2023-12-20T06:24:51;5.63;;;2.27;;
16352;SDS011;8286;51.274;9.542;2023-12-20T06:27:18;3.50;;;2.17;;
16352;SDS011;8286;51.274;9.542;2023-12-20T06:29:44;5.30;;;2.50;;
16352;SDS011;8286;51.274;9.542;2023-12-20T06:32:10;2.83;;;1.97;;
16352;SDS011;8286;51.274;9.542;2023-12-20T06:34:37;2.10;;;1.90;;
16352;SDS011;8286;51.274;9.542;2023-12-20T06:37:04;7.27;;;2.30;;
16352;SDS011;8286;51.274;9.542;2023-12-20T06:39:32;5.13;;;2.13;;
16352;SDS011;8286;51.274;9.542;2023-12-20T06:41:59;4.07;;;2.60;;
16352;SDS011;8286;51.274;9.542;2023-12-20T06:44:25;5.03;;;2.37;;
16352;SDS011;8286;51.274;9.542;2023-12-20T06:46:52;4.20;;;2.30;;
16352;SDS011;8286;51.274;9.542;2023-12-20T06:49:18;4.37;;;2.30;;
16352;SDS011;8286;51.274;9.542;2023-12-20T06:51:45;5.57;;;2.37;;
16352;SDS011;8286;51.274;9.542;2023-12-20T06:54:11;4.27;;;2.20;;
16352;SDS011;8286;51.274;9.542;2023-12-20T06:56:39;2.67;;;1.97;;
16352;SDS011;8286;51.274;9.542;2023-12-20T06:59:06;4.40;;;2.80;;
16352;SDS011;8286;51.274;9.542;2023-12-20T07:01:32;9.77;;;2.37;;
16352;SDS011;8286;51.274;9.542;2023-12-20T07:03:59;2.50;;;2.30;;
16352;SDS011;8286;51.274;9.542;2023-12-20T07:06:25;3.63;;;2.10;;
16352;SDS011;8286;51.274;9.542;2023-12-20T07:08:52;4.50;;;2.10;;
16352;SDS011;8286;51.274;9.542;2023-12-20T07:11:18;4.13;;;3.10;;
16352;SDS011;8286;51.274;9.542;2023-12-20T07:13:46;2.13;;;1.97;;
16352;SDS011;8286;51.274;9.542;2023-12-20T07:16:12;4.27;;;1.97;;
16352;SDS011;8286;51.274;9.542;2023-12-20T07:18:39;5.00;;;2.50;;
16352;SDS011;8286;51.274;9.542;2023-12-20T07:21:05;2.87;;;2.10;;
16352;SDS011;8286;51.274;9.542;2023-12-20T07:23:33;5.57;;;2.73;;
16352;SDS011;8286;51.274;9.542;2023-12-20T07:25:59;6.43;;;2.30;;
16352;SDS011;8286;51.274;9.542;2023-12-20T07:28:26;5.50;;;2.20;;
16352;SDS011;8286;51.274;9.542;2023-12-20T07:30:53;7.57;;;2.73;;
16352;SDS011;8286;51.274;9.542;2023-12-20T07:33:20;4.57;;;2.47;;
16352;SDS011;8286;51.274;9.542;2023-12-20T07:35:46;3.97;;;2.20;;
16352;SDS011;8286;51.274;9.542;2023-12-20T07:38:13;8.90;;;2.40;;
16352;SDS011;8286;51.274;9.542;2023-12-20T07:40:39;9.07;;;2.73;;
16352;SDS011;8286;51.274;9.542;2023-12-20T07:43:06;6.93;;;2.73;;
16352;SDS011;8286;51.274;9.542;2023-12-20T07:45:32;3.87;;;2.83;;
16352;SDS011;8286;51.274;9.542;2023-12-20T07:48:00;6.57;;;2.70;;
16352;SDS011;8286;51.274;9.542;2023-12-20T07:50:26;6.87;;;2.53;;
16352;SDS011;8286;51.274;9.542;2023-12-20T07:52:53;6.43;;;3.50;;
16352;SDS011;8286;51.274;9.542;2023-12-20T07:55:19;6.07;;;2.80;;
16352;SDS011;8286;51.274;9.542;2023-12-20T07:57:47;10.10;;;3.33;;
16352;SDS011;8286;51.274;9.542;2023-12-20T08:00:13;8.87;;;3.50;;
16352;SDS011;8286;51.274;9.542;2023-12-20T08:02:40;8.57;;;3.07;;
16352;SDS011;8286;51.274;9.542;2023-12-20T08:05:08;9.43;;;3.47;;
16352;SDS011;8286;51.274;9.542;2023-12-20T08:07:35;4.70;;;2.80;;
16352;SDS011;8286;51.274;9.542;2023-12-20T08:10:01;11.00;;;3.00;;
16352;SDS011;8286;51.274;9.542;2023-12-20T08:12:28;6.87;;;2.87;;
16352;SDS011;8286;51.274;9.542;2023-12-20T08:14:54;5.17;;;2.70;;
16352;SDS011;8286;51.274;9.542;2023-12-20T08:17:22;6.20;;;2.60;;
16352;SDS011;8286;51.274;9.542;2023-12-20T08:19:48;8.13;;;3.40;;
16352;SDS011;8286;51.274;9.542;2023-12-20T08:22:16;4.67;;;2.73;;
16352;SDS011;8286;51.274;9.542;2023-12-20T08:24:43;5.27;;;2.40;;
16352;SDS011;8286;51.274;9.542;2023-12-20T08:27:09;4.50;;;2.70;;
16352;SDS011;8286;51.274;9.542;2023-12-20T08:29:36;3.27;;;2.77;;
16352;SDS011;8286;51.274;9.542;2023-12-20T08:32:02;4.47;;;2.70;;
16352;SDS011;8286;51.274;9.542;2023-12-20T08:34:29;5.67;;;2.90;;
16352;SDS011;8286;51.274;9.542;2023-12-20T08:36:56;7.30;;;3.10;;
16352;SDS011;8286;51.274;9.542;2023-12-20T08:39:24;7.40;;;2.77;;
16352;SDS011;8286;51.274;9.542;2023-12-20T08:41:50;6.40;;;2.80;;
16352;SDS011;8286;51.274;9.542;2023-12-20T08:44:17;4.93;;;2.03;;
16352;SDS011;8286;51.274;9.542;2023-12-20T08:46:43;6.43;;;2.57;;
16352;SDS011;8286;51.274;9.542;2023-12-20T08:49:10;4.57;;;2.50;;
16352;SDS011;8286;51.274;9.542;2023-12-20T08:51:36;9.50;;;2.40;;
16352;SDS011;8286;51.274;9.542;2023-12-20T08:54:05;5.73;;;2.67;;
16352;SDS011;8286;51.274;9.542;2023-12-20T08:56:34;5.40;;;2.23;;
16352;SDS011;8286;51.274;9.542;2023-12-20T08:59:00;5.03;;;2.10;;
16352;SDS011;8286;51.274;9.542;2023-12-20T09:01:27;7.73;;;2.57;;
16352;SDS011;8286;51.274;9.542;2023-12-20T09:03:53;7.90;;;2.90;;
16352;SDS011;8286;51.274;9.542;2023-12-20T09:06:20;4.53;;;2.63;;
16352;SDS011;8286;51.274;9.542;2023-12-20T09:08:46;8.97;;;2.40;;
16352;SDS011;8286;51.274;9.542;2023-12-20T09:11:13;4.70;;;2.33;;
16352;SDS011;8286;51.274;9.542;2023-12-20T09:13:41;5.30;;;2.50;;
16352;SDS011;8286;51.274;9.542;2023-12-20T09:16:08;4.43;;;2.57;;
16352;SDS011;8286;51.274;9.542;2023-12-20T09:18:34;5.97;;;3.20;;
16352;SDS011;8286;51.274;9.542;2023-12-20T09:21:01;6.90;;;2.90;;
16352;SDS011;8286;51.274;9.542;2023-12-20T09:23:27;2.40;;;2.00;;
16352;SDS011;8286;51.274;9.542;2023-12-20T09:25:54;6.00;;;2.80;;
16352;SDS011;8286;51.274;9.542;2023-12-20T09:28:20;8.23;;;2.93;;
16352;SDS011;8286;51.274;9.542;2023-12-20T09:30:48;7.20;;;2.93;;
16352;SDS011;8286;51.274;9.542;2023-12-20T09:33:14;6.70;;;2.67;;
16352;SDS011;8286;51.274;9.542;2023-12-20T09:35:41;6.33;;;2.93;;
16352;SDS011;8286;51.274;9.542;2023-12-20T09:38:07;5.63;;;2.80;;
16352;SDS011;8286;51.274;9.542;2023-12-20T09:40:34;6.23;;;2.63;;
16352;SDS011;8286;51.274;9.542;2023-12-20T09:43:03;4.37;;;2.70;;
16352;SDS011;8286;51.274;9.542;2023-12-20T09:45:30;4.13;;;2.77;;
16352;SDS011;8286;51.274;9.542;2023-12-20T09:47:58;9.17;;;2.80;;
16352;SDS011;8286;51.274;9.542;2023-12-20T09:50:24;4.97;;;2.77;;
16352;SDS011;8286;51.274;9.542;2023-12-20T09:52:52;9.13;;;3.17;;
16352;SDS011;8286;51.274;9.542;2023-12-20T09:55:21;7.83;;;2.87;;
16352;SDS011;8286;51.274;9.542;2023-12-20T09:57:48;5.70;;;2.57;;
16352;SDS011;8286;51.274;9.542;2023-12-20T10:00:15;7.73;;;2.73;;
16352;SDS011;8286;51.274;9.542;2023-12-20T10:02:44;8.27;;;2.70;;
16352;SDS011;8286;51.274;9.542;2023-12-20T10:05:15;4.17;;;2.53;;
16352;SDS011;8286;51.274;9.542;2023-12-20T10:07:44;4.80;;;2.97;;
16352;SDS011;8286;51.274;9.542;2023-12-20T10:10:10;5.60;;;2.40;;
16352;SDS011;8286;51.274;9.542;2023-12-20T10:12:38;8.60;;;2.27;;
16352;SDS011;8286;51.274;9.542;2023-12-20T10:15:04;6.93;;;2.77;;
16352;SDS011;8286;51.274;9.542;2023-12-20T10:17:31;10.20;;;3.13;;
16352;SDS011;8286;51.274;9.542;2023-12-20T10:19:58;8.63;;;2.90;;
16352;SDS011;8286;51.274;9.542;2023-12-20T10:22:26;7.67;;;2.80;;
16352;SDS011;8286;51.274;9.542;2023-12-20T10:24:53;7.77;;;3.07;;
16352;SDS011;8286;51.274;9.542;2023-12-20T10:27:19;8.97;;;3.37;;
16352;SDS011;8286;51.274;9.542;2023-12-20T10:29:46;7.70;;;2.97;;
16352;SDS011;8286;51.274;9.542;2023-12-20T10:32:22;6.50;;;3.07;;
16352;SDS011;8286;51.274;9.542;2023-12-20T10:34:49;9.17;;;3.13;;
16352;SDS011;8286;51.274;9.542;2023-12-20T10:37:16;12.37;;;3.13;;
16352;SDS011;8286;51.274;9.542;2023-12-20T10:39:44;5.57;;;3.23;;
16352;SDS011;8286;51.274;9.542;2023-12-20T10:42:16;6.37;;;3.10;;
16352;SDS011;8286;51.274;9.542;2023-12-20T10:44:43;7.47;;;3.10;;
16352;SDS011;8286;51.274;9.542;2023-12-20T10:47:10;8.93;;;3.27;;
16352;SDS011;8286;51.274;9.542;2023-12-20T10:49:38;7.20;;;3.37;;
16352;SDS011;8286;51.274;9.542;2023-12-20T10:52:05;6.10;;;3.37;;
16352;SDS011;8286;51.274;9.542;2023-12-20T10:54:32;10.30;;;3.23;;
16352;SDS011;8286;51.274;9.542;2023-12-20T10:57:00;7.50;;;2.47;;
16352;SDS011;8286;51.274;9.542;2023-12-20T10:59:30;4.07;;;2.37;;
16352;SDS011;8286;51.274;9.542;2023-12-20T11:01:59;6.17;;;2.33;;
16352;SDS011;8286;51.274;9.542;2023-12-20T11:04:28;3.93;;;2.77;;
16352;SDS011;8286;51.274;9.542;2023-12-20T11:07:03;7.30;;;3.07;;
16352;SDS011;8286;51.274;9.542;2023-12-20T11:09:35;7.03;;;2.37;;
16352;SDS011;8286;51.274;9.542;2023-12-20T11:12:09;4.40;;;2.53;;
16352;SDS011;8286;51.274;9.542;2023-12-20T11:14:39;7.40;;;2.80;;
16352;SDS011;8286;51.274;9.542;2023-12-20T11:17:08;7.37;;;2.60;;
16352;SDS011;8286;51.274;9.542;2023-12-20T11:19:36;6.90;;;2.50;;
16352;SDS011;8286;51.274;9.542;2023-12-20T11:22:04;4.80;;;2.50;;
16352;SDS011;8286;51.274;9.542;2023-12-20T11:24:31;6.13;;;2.63;;
16352;SDS011;8286;51.274;9.542;2023-12-20T11:26:59;3.97;;;2.57;;
16352;SDS011;8286;51.274;9.542;2023-12-20T11:29:30;5.33;;;1.93;;
16352;SDS011;8286;51.274;9.542;2023-12-20T11:31:59;5.17;;;2.07;;
16352;SDS011;8286;51.274;9.542;2023-12-20T11:34:27;4.97;;;2.10;;
16352;SDS011;8286;51.274;9.542;2023-12-20T11:36:57;7.93;;;2.40;;
16352;SDS011;8286;51.274;9.542;2023-12-20T11:39:25;2.67;;;1.80;;
16352;SDS011;8286;51.274;9.542;2023-12-20T11:41:53;3.10;;;2.17;;
16352;SDS011;8286;51.274;9.542;2023-12-20T11:44:21;6.50;;;2.30;;
16352;SDS011;8286;51.274;9.542;2023-12-20T11:46:49;4.50;;;2.93;;
16352;SDS011;8286;51.274;9.542;2023-12-20T11:49:15;6.93;;;2.40;;
16352;SDS011;8286;51.274;9.542;2023-12-20T11:51:42;3.20;;;2.03;;
16352;SDS011;8286;51.274;9.542;2023-12-20T11:54:08;3.80;;;2.20;;
16352;SDS011;8286;51.274;9.542;2023-12-20T11:56:36;11.53;;;2.37;;
16352;SDS011;8286;51.274;9.542;2023-12-20T11:59:02;5.23;;;2.20;;
16352;SDS011;8286;51.274;9.542;2023-12-20T12:01:29;6.23;;;1.90;;
16352;SDS011;8286;51.274;9.542;2023-12-20T12:04:05;4.10;;;2.33;;
16352;SDS011;8286;51.274;9.542;2023-12-20T12:06:31;7.00;;;2.30;;
16352;SDS011;8286;51.274;9.542;2023-12-20T12:08:58;7.33;;;2.40;;
16352;SDS011;8286;51.274;9.542;2023-12-20T12:11:25;6.07;;;2.73;;
16352;SDS011;8286;51.274;9.542;2023-12-20T12:13:51;4.73;;;2.33;;
16352;SDS011;8286;51.274;9.542;2023-12-20T12:16:18;4.20;;;2.77;;
16352;SDS011;8286;51.274;9.542;2023-12-20T12:18:44;3.73;;;2.10;;
16352;SDS011;8286;51.274;9.542;2023-12-20T12:21:20;3.97;;;2.13;;
16352;SDS011;8286;51.274;9.542;2023-12-20T12:23:46;4.93;;;2.17;;
16352;SDS011;8286;51.274;9.542;2023-12-20T12:26:13;6.63;;;2.10;;
16352;SDS011;8286;51.274;9.542;2023-12-20T12:28:39;4.57;;;2.07;;
16352;SDS011;8286;51.274;9.542;2023-12-20T12:31:06;10.27;;;2.40;;
16352;SDS011;8286;51.274;9.542;2023-12-20T12:33:33;2.57;;;2.23;;
16352;SDS011;8286;51.274;9.542;2023-12-20T12:36:00;6.60;;;2.00;;
16352;SDS011;8286;51.274;9.542;2023-12-20T12:38:27;6.90;;;2.07;;
16352;SDS011;8286;51.274;9.542;2023-12-20T12:40:54;5.73;;;2.03;;
16352;SDS011;8286;51.274;9.542;2023-12-20T12:43:20;5.80;;;2.13;;
16352;SDS011;8286;51.274;9.542;2023-12-20T12:45:47;2.77;;;2.20;;
16352;SDS011;8286;51.274;9.542;2023-12-20T12:48:14;6.07;;;2.60;;
16352;SDS011;8286;51.274;9.542;2023-12-20T12:50:41;6.47;;;2.60;;
16352;SDS011;8286;51.274;9.542;2023-12-20T12:53:08;2.43;;;1.83;;
16352;SDS011;8286;51.274;9.542;2023-12-20T12:55:36;3.93;;;2.00;;
16352;SDS011;8286;51.274;9.542;2023-12-20T12:58:02;4.03;;;2.10;;
16352;SDS011;8286;51.274;9.542;2023-12-20T13:00:29;5.50;;;2.67;;
16352;SDS011;8286;51.274;9.542;2023-12-20T13:02:56;6.00;;;2.57;;
16352;SDS011;8286;51.274;9.542;2023-12-20T13:05:22;6.13;;;2.70;;
16352;SDS011;8286;51.274;9.542;2023-12-20T13:07:48;10.03;;;2.27;;
16352;SDS011;8286;51.274;9.542;2023-12-20T13:10:15;9.77;;;2.80;;
16352;SDS011;8286;51.274;9.542;2023-12-20T13:12:43;4.40;;;2.60;;
16352;SDS011;8286;51.274;9.542;2023-12-20T13:15:10;5.57;;;2.83;;
16352;SDS011;8286;51.274;9.542;2023-12-20T13:17:37;4.83;;;2.77;;
16352;SDS011;8286;51.274;9.542;2023-12-20T13:20:05;4.03;;;2.87;;
16352;SDS011;8286;51.274;9.542;2023-12-20T13:22:32;6.83;;;3.13;;
16352;SDS011;8286;51.274;9.542;2023-12-20T13:24:59;3.23;;;2.67;;
16352;SDS011;8286;51.274;9.542;2023-12-20T13:27:26;4.47;;;2.40;;
16352;SDS011;8286;51.274;9.542;2023-12-20T13:29:54;4.60;;;1.97;;
16352;SDS011;8286;51.274;9.542;2023-12-20T13:32:20;3.00;;;1.97;;
16352;SDS011;8286;51.274;9.542;2023-12-20T13:34:47;6.87;;;2.10;;
16352;SDS011;8286;51.274;9.542;2023-12-20T13:37:13;2.70;;;2.50;;
16352;SDS011;8286;51.274;9.542;2023-12-20T13:39:40;5.77;;;2.67;;
16352;SDS011;8286;51.274;9.542;2023-12-20T13:42:06;2.87;;;2.20;;
16352;SDS011;8286;51.274;9.542;2023-12-20T13:44:33;4.60;;;2.33;;
16352;SDS011;8286;51.274;9.542;2023-12-20T13:47:01;3.03;;;2.50;;
16352;SDS011;8286;51.274;9.542;2023-12-20T13:49:28;6.87;;;2.73;;
16352;SDS011;8286;51.274;9.542;2023-12-20T13:51:54;5.50;;;3.20;;
16352;SDS011;8286;51.274;9.542;2023-12-20T13:54:22;2.83;;;2.53;;
16352;SDS011;8286;51.274;9.542;2023-12-20T13:56:49;4.77;;;2.80;;
16352;SDS011;8286;51.274;9.542;2023-12-20T13:59:15;2.57;;;2.37;;
16352;SDS011;8286;51.274;9.542;2023-12-20T14:01:42;4.00;;;2.50;;
16352;SDS011;8286;51.274;9.542;2023-12-20T14:04:09;4.73;;;2.37;;
16352;SDS011;8286;51.274;9.542;2023-12-20T14:06:36;4.63;;;2.23;;
16352;SDS011;8286;51.274;9.542;2023-12-20T14:09:03;2.20;;;1.97;;
16352;SDS011;8286;51.274;9.542;2023-12-20T14:11:29;2.93;;;2.70;;
16352;SDS011;8286;51.274;9.542;2023-12-20T14:13:56;5.27;;;3.00;;
16352;SDS011;8286;51.274;9.542;2023-12-20T14:16:23;6.30;;;2.57;;
16352;SDS011;8286;51.274;9.542;2023-12-20T14:18:49;7.90;;;2.83;;
16352;SDS011;8286;51.274;9.542;2023-12-20T14:21:18;6.80;;;2.70;;
16352;SDS011;8286;51.274;9.542;2023-12-20T14:23:45;4.63;;;2.90;;
16352;SDS011;8286;51.274;9.542;2023-12-20T14:26:12;7.80;;;2.50;;
16352;SDS011;8286;51.274;9.542;2023-12-20T14:28:40;3.20;;;2.50;;
16352;SDS011;8286;51.274;9.542;2023-12-20T14:31:06;4.67;;;2.00;;
16352;SDS011;8286;51.274;9.542;2023-12-20T14:33:33;6.53;;;2.70;;
16352;SDS011;8286;51.274;9.542;2023-12-20T14:36:00;4.23;;;2.33;;
16352;SDS011;8286;51.274;9.542;2023-12-20T14:38:28;3.80;;;2.20;;
16352;SDS011;8286;51.274;9.542;2023-12-20T14:40:54;2.43;;;2.20;;
16352;SDS011;8286;51.274;9.542;2023-12-20T14:43:21;2.43;;;1.83;;
16352;SDS011;8286;51.274;9.542;2023-12-20T14:45:47;2.67;;;2.20;;
16352;SDS011;8286;51.274;9.542;2023-12-20T14:48:14;3.33;;;2.40;;
16352;SDS011;8286;51.274;9.542;2023-12-20T14:50:40;2.60;;;2.40;;
16352;SDS011;8286;51.274;9.542;2023-12-20T14:53:07;3.67;;;2.50;;
16352;SDS011;8286;51.274;9.542;2023-12-20T14:55:35;2.47;;;2.10;;
16352;SDS011;8286;51.274;9.542;2023-12-20T14:58:02;2.03;;;1.67;;